createdAt,value
2023-01-19T00:00:52.539Z,7.32
2023-01-19T00:03:19.205Z,7.27
2023-01-19T00:05:46.101Z,7.32
2023-01-19T00:08:16.423Z,7.36
2023-01-19T00:10:45.263Z,7.37
2023-01-19T00:13:12.460Z,7.42
2023-01-19T00:15:39.406Z,7.40
2023-01-19T00:18:06.085Z,7.42
2023-01-19T00:20:32.929Z,7.39
2023-01-19T00:22:59.766Z,7.43
2023-01-19T00:25:26.707Z,7.40
2023-01-19T00:27:53.293Z,7.32
2023-01-19T00:30:19.895Z,7.30
2023-01-19T00:32:46.459Z,7.34
2023-01-19T00:35:13.106Z,7.34
2023-01-19T00:37:39.811Z,7.37
2023-01-19T00:40:07.297Z,7.42
2023-01-19T00:42:44.456Z,7.43
2023-01-19T00:45:20.087Z,7.40
2023-01-19T00:47:47.991Z,7.32
2023-01-19T00:50:16.960Z,7.32
2023-01-19T00:52:44.559Z,7.33
2023-01-19T00:55:13.699Z,7.39
2023-01-19T00:57:41.786Z,7.42
2023-01-19T01:00:11.825Z,7.46
2023-01-19T01:02:39.956Z,7.49
2023-01-19T01:05:07.219Z,7.51
2023-01-19T01:07:45.203Z,7.51
2023-01-19T01:10:24.338Z,7.53
2023-01-19T01:12:56.909Z,7.50
2023-01-19T01:15:27.357Z,7.46
2023-01-19T01:17:54.518Z,7.42
2023-01-19T01:20:27.077Z,7.33
2023-01-19T01:22:55.388Z,7.39
2023-01-19T01:25:24.655Z,7.39
2023-01-19T01:27:51.461Z,7.37
2023-01-19T01:30:19.291Z,7.36
2023-01-19T01:32:45.951Z,7.30
2023-01-19T01:35:12.975Z,7.32
2023-01-19T01:37:40.294Z,7.26
2023-01-19T01:40:07.807Z,7.33
2023-01-19T01:42:35.434Z,7.34
2023-01-19T01:45:07.598Z,7.30
2023-01-19T01:47:46.394Z,7.29
2023-01-19T01:50:23.339Z,7.27
2023-01-19T01:53:07.346Z,7.32
2023-01-19T01:55:39.978Z,7.34
2023-01-19T01:58:08.957Z,7.33
2023-01-19T02:00:54.882Z,7.39
2023-01-19T02:03:24.267Z,7.39
2023-01-19T02:05:52.003Z,7.39
2023-01-19T02:09:09.209Z,7.32
2023-01-19T02:11:54.958Z,7.29
2023-01-19T02:14:21.634Z,7.37
2023-01-19T02:16:48.414Z,7.34
2023-01-19T02:19:21.708Z,7.39
2023-01-19T02:22:07.207Z,7.32
2023-01-19T02:24:34.180Z,7.34
2023-01-19T02:27:01.164Z,7.34
2023-01-19T02:29:28.864Z,7.36
2023-01-19T02:31:56.371Z,7.32
2023-01-19T02:34:23.227Z,7.22
2023-01-19T02:37:07.154Z,7.20
2023-01-19T02:39:56.314Z,7.25
2023-01-19T02:42:30.706Z,7.22
2023-01-19T02:44:58.033Z,7.19
2023-01-19T02:47:24.750Z,7.15
2023-01-19T02:49:59.129Z,7.06
2023-01-19T02:52:27.254Z,7.06
2023-01-19T02:55:15.409Z,7.11
2023-01-19T02:57:57.163Z,7.02
2023-01-19T03:00:37.793Z,7.05
2023-01-19T03:03:19.614Z,7.06
2023-01-19T03:06:11.363Z,7.08
2023-01-19T03:09:00.594Z,7.05
2023-01-19T03:11:34.121Z,7.06
2023-01-19T03:14:12.671Z,7.08
2023-01-19T03:16:43.157Z,7.08
2023-01-19T03:19:13.760Z,7.04
2023-01-19T03:21:45.823Z,7.11
2023-01-19T03:24:15.547Z,7.11
2023-01-19T03:26:45.982Z,7.16
2023-01-19T03:29:15.101Z,7.16
2023-01-19T03:31:45.056Z,7.16
2023-01-19T03:34:14.438Z,7.16
2023-01-19T03:36:45.452Z,7.18
2023-01-19T03:39:16.769Z,7.16
2023-01-19T03:41:47.191Z,7.22
2023-01-19T03:44:13.949Z,7.20
2023-01-19T03:46:40.936Z,7.16
2023-01-19T03:49:08.434Z,7.19
2023-01-19T03:51:39.846Z,7.20
2023-01-19T03:54:07.535Z,7.20
2023-01-19T03:56:34.121Z,7.13
2023-01-19T03:59:00.868Z,7.13
2023-01-19T04:01:27.793Z,7.12
2023-01-19T04:03:54.671Z,7.08
2023-01-19T04:06:21.922Z,7.09
2023-01-19T04:08:52.064Z,7.09
2023-01-19T04:11:18.710Z,7.08
2023-01-19T04:13:45.281Z,7.05
2023-01-19T04:16:12.181Z,7.06
2023-01-19T04:18:38.755Z,7.12
2023-01-19T04:21:07.728Z,7.09
2023-01-19T04:23:34.831Z,7.06
2023-01-19T04:26:03.309Z,7.08
2023-01-19T04:28:30.665Z,7.08
2023-01-19T04:30:57.715Z,7.06
2023-01-19T04:33:24.771Z,7.04
2023-01-19T04:35:54.361Z,7.01
2023-01-19T04:38:21.424Z,7.02
2023-01-19T04:40:50.043Z,7.01
2023-01-19T04:43:17.428Z,7.01
2023-01-19T04:45:46.827Z,7.02
2023-01-19T04:48:14.508Z,7.04
2023-01-19T04:50:42.020Z,7.05
2023-01-19T04:53:08.927Z,6.99
2023-01-19T04:55:36.801Z,7.04
2023-01-19T04:58:03.532Z,7.08
2023-01-19T05:00:30.204Z,7.15
2023-01-19T05:02:56.859Z,7.12
2023-01-19T05:05:24.095Z,7.13
2023-01-19T05:07:50.645Z,7.11
2023-01-19T05:10:17.357Z,7.12
2023-01-19T05:12:43.978Z,7.13
2023-01-19T05:15:11.297Z,7.16
2023-01-19T05:17:38.077Z,7.13
2023-01-19T05:20:05.159Z,7.09
2023-01-19T05:22:32.063Z,7.01
2023-01-19T05:24:58.773Z,7.02
2023-01-19T05:27:25.382Z,6.95
2023-01-19T05:29:52.106Z,6.94
2023-01-19T05:32:18.735Z,6.92
2023-01-19T05:34:45.312Z,6.88
2023-01-19T05:37:12.024Z,6.84
2023-01-19T05:39:38.641Z,6.78
2023-01-19T05:42:05.411Z,6.80
2023-01-19T05:44:32.045Z,6.74
2023-01-19T05:46:58.741Z,6.64
2023-01-19T05:49:25.545Z,6.66
2023-01-19T05:51:52.098Z,6.66
2023-01-19T05:54:18.817Z,6.75
2023-01-19T05:56:45.680Z,6.77
2023-01-19T05:59:13.280Z,6.68
2023-01-19T06:01:40.448Z,6.73
2023-01-19T06:04:07.379Z,6.80
2023-01-19T06:06:34.005Z,6.84
2023-01-19T06:09:00.588Z,6.84
2023-01-19T06:11:27.238Z,6.80
2023-01-19T06:13:54.088Z,6.81
2023-01-19T06:16:20.681Z,6.81
2023-01-19T06:18:47.285Z,6.81
2023-01-19T06:21:14.430Z,6.80
2023-01-19T06:23:41.287Z,6.81
2023-01-19T06:26:07.954Z,6.81
2023-01-19T06:28:34.891Z,6.80
2023-01-19T06:31:01.985Z,6.78
2023-01-19T06:33:28.682Z,6.81
2023-01-19T06:35:56.065Z,6.83
2023-01-19T06:38:22.850Z,6.85
2023-01-19T06:40:54.732Z,6.89
2023-01-19T06:43:21.733Z,6.87
2023-01-19T06:45:48.827Z,6.85
2023-01-19T06:48:15.722Z,6.92
2023-01-19T06:50:45.209Z,6.94
2023-01-19T06:53:12.342Z,6.89
2023-01-19T06:55:39.283Z,6.92
2023-01-19T06:58:06.573Z,6.89
2023-01-19T07:00:33.250Z,6.85
2023-01-19T07:03:00.230Z,6.91
2023-01-19T07:05:27.376Z,6.94
2023-01-19T07:07:57.616Z,6.99
2023-01-19T07:10:25.101Z,6.96
2023-01-19T07:12:51.935Z,6.96
2023-01-19T07:15:20.180Z,6.98
2023-01-19T07:17:46.768Z,6.98
2023-01-19T07:20:14.455Z,7.02
2023-01-19T07:22:43.526Z,6.96
2023-01-19T07:25:10.454Z,7.02
2023-01-19T07:27:37.126Z,7.01
2023-01-19T07:30:04.792Z,7.05
2023-01-19T07:32:31.427Z,7.11
2023-01-19T07:34:58.163Z,7.09
2023-01-19T07:37:24.703Z,7.06
2023-01-19T07:39:51.366Z,7.02
2023-01-19T07:42:17.943Z,7.04
2023-01-19T07:44:44.492Z,7.05
2023-01-19T07:47:12.763Z,7.08
2023-01-19T07:49:39.851Z,7.15
2023-01-19T07:52:06.427Z,7.20
2023-01-19T07:54:33.678Z,7.29
2023-01-19T07:57:03.617Z,7.29
2023-01-19T07:59:31.118Z,7.25
2023-01-19T08:02:00.821Z,7.18
2023-01-19T08:04:30.933Z,7.16
2023-01-19T08:06:57.544Z,7.18
2023-01-19T08:09:24.476Z,7.23
2023-01-19T08:11:51.072Z,7.30
2023-01-19T08:14:18.213Z,7.27
2023-01-19T08:16:44.841Z,7.34
2023-01-19T08:19:11.753Z,7.42
2023-01-19T08:21:39.024Z,7.46
2023-01-19T08:24:06.071Z,7.49
2023-01-19T08:26:35.822Z,7.51
2023-01-19T08:29:05.530Z,7.56
2023-01-19T08:31:32.247Z,7.53
2023-01-19T08:33:59.002Z,7.57
2023-01-19T08:36:26.428Z,7.66
2023-01-19T08:38:53.405Z,7.73
2023-01-19T08:41:20.267Z,7.84
2023-01-19T08:43:46.955Z,7.88
2023-01-19T08:46:17.501Z,7.94
2023-01-19T08:48:45.258Z,7.91
2023-01-19T08:51:12.721Z,7.89
2023-01-19T08:53:39.328Z,7.94
2023-01-19T08:56:12.157Z,7.98
2023-01-19T08:58:40.101Z,8.01
2023-01-19T09:01:08.776Z,7.99
2023-01-19T09:03:36.235Z,8.02
2023-01-19T09:06:06.256Z,8.10
2023-01-19T09:08:33.224Z,8.21
2023-01-19T09:10:59.957Z,8.26
2023-01-19T09:13:26.576Z,8.30
2023-01-19T09:15:53.338Z,8.46
2023-01-19T09:18:21.747Z,8.81
2023-01-19T09:20:50.416Z,9.11
2023-01-19T09:23:19.754Z,9.28
2023-01-19T09:25:47.998Z,9.43
2023-01-19T09:28:16.303Z,9.57
2023-01-19T09:30:43.884Z,9.71
2023-01-19T09:33:13.288Z,9.75
2023-01-19T09:35:41.326Z,9.75
2023-01-19T09:38:09.314Z,9.71
2023-01-19T09:40:59.343Z,9.56
2023-01-19T09:43:40.615Z,9.61
2023-01-19T09:46:14.357Z,9.61
2023-01-19T09:48:44.133Z,9.71
2023-01-19T09:51:18.987Z,9.98
2023-01-19T09:54:08.159Z,10.19
2023-01-19T09:56:34.854Z,10.13
2023-01-19T09:59:03.226Z,10.04
2023-01-19T10:01:38.142Z,9.99
2023-01-19T10:04:32.945Z,9.98
2023-01-19T10:07:33.074Z,9.98
2023-01-19T10:10:22.977Z,9.95
2023-01-19T10:13:23.227Z,9.93
2023-01-19T10:16:01.601Z,9.93
2023-01-19T10:18:35.812Z,9.85
2023-01-19T10:21:10.588Z,9.75
2023-01-19T10:23:48.272Z,9.64
2023-01-19T10:26:18.490Z,9.53
2023-01-19T10:28:47.977Z,9.51
2023-01-19T10:31:18.571Z,9.49
2023-01-19T10:33:45.412Z,9.42
2023-01-19T10:36:28.986Z,9.40
2023-01-19T10:38:55.595Z,9.38
2023-01-19T10:41:30.641Z,9.38
2023-01-19T10:44:05.598Z,9.44
2023-01-19T10:46:42.302Z,9.43
2023-01-19T10:49:44.784Z,9.47
2023-01-19T10:52:32.424Z,9.51
2023-01-19T10:55:00.555Z,9.53
2023-01-19T10:57:38.348Z,9.51
2023-01-19T11:00:06.591Z,9.46
2023-01-19T11:02:33.548Z,9.47
2023-01-19T11:05:21.052Z,9.50
2023-01-19T11:07:47.636Z,9.44
2023-01-19T11:10:21.171Z,9.44
2023-01-19T11:12:55.108Z,9.42
2023-01-19T11:15:25.591Z,9.42
2023-01-19T11:17:53.658Z,9.44
2023-01-19T11:20:23.386Z,9.57
2023-01-19T11:23:06.274Z,9.58
2023-01-19T11:25:35.018Z,9.56
2023-01-19T11:28:03.315Z,9.56
2023-01-19T11:30:30.561Z,9.60
2023-01-19T11:32:57.321Z,9.60
2023-01-19T11:35:40.271Z,9.61
2023-01-19T11:38:13.422Z,9.63
2023-01-19T11:40:41.956Z,9.63
2023-01-19T11:43:13.619Z,9.71
2023-01-19T11:45:41.121Z,9.71
2023-01-19T11:48:19.750Z,9.70
2023-01-19T11:50:48.865Z,9.69
2023-01-19T11:53:28.213Z,9.67
2023-01-19T11:56:08.998Z,9.69
2023-01-19T11:58:41.193Z,9.74
2023-01-19T12:01:21.177Z,9.84
2023-01-19T12:03:54.701Z,9.81
2023-01-19T12:06:33.757Z,9.84
2023-01-19T12:09:26.566Z,9.85
2023-01-19T12:12:06.994Z,9.83
2023-01-19T12:15:07.937Z,9.84
2023-01-19T12:17:44.663Z,9.88
2023-01-19T12:20:23.680Z,9.85
2023-01-19T12:23:07.374Z,9.88
2023-01-19T12:25:45.768Z,9.83
2023-01-19T12:28:15.602Z,9.84
2023-01-19T12:30:42.493Z,9.85
2023-01-19T12:33:38.559Z,9.84
2023-01-19T12:36:17.338Z,9.91
2023-01-19T12:38:48.966Z,9.91
2023-01-19T12:41:27.514Z,9.87
2023-01-19T12:44:14.010Z,9.84
2023-01-19T12:46:46.956Z,9.83
2023-01-19T12:49:22.919Z,9.80
2023-01-19T12:51:52.107Z,9.77
2023-01-19T12:54:32.702Z,9.75
2023-01-19T12:57:04.861Z,9.77
2023-01-19T12:59:33.493Z,9.74
2023-01-19T13:02:18.521Z,9.80
2023-01-19T13:05:06.933Z,9.84
2023-01-19T13:08:07.906Z,9.87
2023-01-19T13:10:55.663Z,9.80
2023-01-19T13:13:25.102Z,9.77
2023-01-19T13:15:55.460Z,9.71
2023-01-19T13:18:23.527Z,9.71
2023-01-19T13:21:04.976Z,9.69
2023-01-19T13:23:52.481Z,9.73
2023-01-19T13:26:23.823Z,9.74
2023-01-19T13:28:53.961Z,9.74
2023-01-19T13:31:21.771Z,9.80
2023-01-19T13:33:57.236Z,9.84
2023-01-19T13:36:31.975Z,9.88
2023-01-19T13:39:03.407Z,9.88
2023-01-19T13:41:35.459Z,9.87
2023-01-19T13:44:07.795Z,9.87
2023-01-19T13:46:38.494Z,9.90
2023-01-19T13:49:26.273Z,9.88
2023-01-19T13:52:07.703Z,9.85
2023-01-19T13:54:34.273Z,9.84
2023-01-19T13:57:00.855Z,9.70
2023-01-19T13:59:27.451Z,9.57
2023-01-19T14:01:54.525Z,9.49
2023-01-19T14:04:29.937Z,9.40
2023-01-19T14:07:11.893Z,9.43
2023-01-19T14:09:39.631Z,9.47
2023-01-19T14:12:14.081Z,9.50
2023-01-19T14:14:42.849Z,9.54
2023-01-19T14:17:24.735Z,9.54
2023-01-19T14:19:54.234Z,9.58
2023-01-19T14:22:20.865Z,9.54
2023-01-19T14:24:47.456Z,9.54
2023-01-19T14:27:19.850Z,9.50
2023-01-19T14:29:48.400Z,9.51
2023-01-19T14:32:22.362Z,9.53
2023-01-19T14:34:51.156Z,9.51
2023-01-19T14:37:20.450Z,9.49
2023-01-19T14:39:51.275Z,9.51
2023-01-19T14:42:23.473Z,9.49
2023-01-19T14:44:52.962Z,9.47
2023-01-19T14:47:34.943Z,9.50
2023-01-19T14:50:41.495Z,9.51
2023-01-19T14:53:21.335Z,9.46
2023-01-19T14:55:52.421Z,9.47
2023-01-19T14:58:21.421Z,9.49
2023-01-19T15:00:49.363Z,9.49
2023-01-19T15:03:16.427Z,9.51
2023-01-19T15:05:45.768Z,9.50
2023-01-19T15:08:23.238Z,9.50
2023-01-19T15:10:49.831Z,9.47
2023-01-19T15:13:20.533Z,9.43
2023-01-19T15:15:47.173Z,9.36
2023-01-19T15:18:17.423Z,9.36
2023-01-19T15:20:44.142Z,9.33
2023-01-19T15:23:11.972Z,9.35
2023-01-19T15:25:42.284Z,9.35
2023-01-19T15:28:14.252Z,9.33
2023-01-19T15:30:40.974Z,9.30
2023-01-19T15:33:17.288Z,9.30
2023-01-19T15:35:43.828Z,9.30
2023-01-19T15:38:10.411Z,9.26
2023-01-19T15:40:37.219Z,9.26
2023-01-19T15:43:04.075Z,9.20
2023-01-19T15:45:48.017Z,9.20
2023-01-19T15:48:14.885Z,9.18
2023-01-19T15:50:44.171Z,9.20
2023-01-19T15:53:15.619Z,9.19
2023-01-19T15:55:42.590Z,9.15
2023-01-19T15:58:09.228Z,9.07
2023-01-19T16:00:36.606Z,9.00
2023-01-19T16:03:03.965Z,8.95
2023-01-19T16:05:42.470Z,8.89
2023-01-19T16:08:11.556Z,8.92
2023-01-19T16:10:38.534Z,8.91
2023-01-19T16:13:05.167Z,8.87
2023-01-19T16:15:34.799Z,8.89
2023-01-19T16:18:01.377Z,8.82
2023-01-19T16:20:27.997Z,8.73
2023-01-19T16:22:56.530Z,8.67
2023-01-19T16:25:25.150Z,8.50
2023-01-19T16:27:51.692Z,8.46
2023-01-19T16:30:19.447Z,8.44
2023-01-19T16:32:46.738Z,8.44
2023-01-19T16:35:15.563Z,8.36
2023-01-19T16:37:42.478Z,8.29
2023-01-19T16:40:09.859Z,8.24
2023-01-19T16:42:36.512Z,8.24
2023-01-19T16:45:03.460Z,8.21
2023-01-19T16:47:30.050Z,8.24
2023-01-19T16:49:56.588Z,8.22
2023-01-19T16:52:23.172Z,8.25
2023-01-19T16:54:50.043Z,8.21
2023-01-19T16:57:16.825Z,8.19
2023-01-19T16:59:45.165Z,8.09
2023-01-19T17:02:11.907Z,8.01
2023-01-19T17:04:38.592Z,8.05
2023-01-19T17:07:20.241Z,8.08
2023-01-19T17:09:46.882Z,8.03
2023-01-19T17:12:13.574Z,7.97
2023-01-19T17:14:40.258Z,7.91
2023-01-19T17:17:09.379Z,7.87
2023-01-19T17:19:36.181Z,7.82
2023-01-19T17:22:02.764Z,7.87
2023-01-19T17:24:29.406Z,7.73
2023-01-19T17:26:55.949Z,7.64
2023-01-19T17:29:22.512Z,7.57
2023-01-19T17:31:51.102Z,7.47
2023-01-19T17:34:17.678Z,7.43
2023-01-19T17:36:44.335Z,7.37
2023-01-19T17:39:14.950Z,7.30
2023-01-19T17:41:41.996Z,7.23
2023-01-19T17:44:10.385Z,7.11
2023-01-19T17:46:38.351Z,6.94
2023-01-19T17:49:08.059Z,6.80
2023-01-19T17:51:35.408Z,6.73
2023-01-19T17:54:02.634Z,6.73
2023-01-19T17:56:33.077Z,6.74
2023-01-19T17:58:59.794Z,6.78
2023-01-19T18:01:29.486Z,6.84
2023-01-19T18:03:57.210Z,6.94
2023-01-19T18:06:23.899Z,6.94
2023-01-19T18:08:50.879Z,6.91
2023-01-19T18:11:19.437Z,6.88
2023-01-19T18:13:48.352Z,6.92
2023-01-19T18:16:26.851Z,7.04
2023-01-19T18:18:54.902Z,6.92
2023-01-19T18:21:23.452Z,6.84
2023-01-19T18:23:50.890Z,6.77
2023-01-19T18:26:20.064Z,6.71
2023-01-19T18:28:48.101Z,6.68
2023-01-19T18:31:17.893Z,6.61
2023-01-19T18:33:44.578Z,6.54
2023-01-19T18:36:11.776Z,6.46
2023-01-19T18:38:39.271Z,6.34
2023-01-19T18:41:14.150Z,6.26
2023-01-19T18:43:40.978Z,6.19
2023-01-19T18:46:08.272Z,6.23
2023-01-19T18:48:35.315Z,6.28
2023-01-19T18:51:09.627Z,6.26
2023-01-19T18:53:36.483Z,6.29
2023-01-19T18:56:03.870Z,6.32
2023-01-19T18:58:31.827Z,6.36
2023-01-19T19:01:01.697Z,6.25
2023-01-19T19:03:29.435Z,6.20
2023-01-19T19:05:56.095Z,6.18
2023-01-19T19:08:22.849Z,6.26
2023-01-19T19:10:52.081Z,6.19
2023-01-19T19:13:21.817Z,6.18
2023-01-19T19:15:50.525Z,6.16
2023-01-19T19:18:17.105Z,6.09
2023-01-19T19:20:44.021Z,6.05
2023-01-19T19:23:11.614Z,5.95
2023-01-19T19:25:38.460Z,5.85
2023-01-19T19:28:05.409Z,5.87
2023-01-19T19:30:34.414Z,5.74
2023-01-19T19:33:01.148Z,5.70
2023-01-19T19:35:27.757Z,5.70
2023-01-19T19:37:57.580Z,5.58
2023-01-19T19:40:26.545Z,5.57
2023-01-19T19:42:53.394Z,5.56
2023-01-19T19:45:20.180Z,5.48
2023-01-19T19:47:46.838Z,5.39
2023-01-19T19:50:14.314Z,5.30
2023-01-19T19:52:42.144Z,5.35
2023-01-19T19:55:10.081Z,5.36
2023-01-19T19:57:36.927Z,5.35
2023-01-19T20:00:05.266Z,5.22
2023-01-19T20:02:32.278Z,5.09
2023-01-19T20:04:58.950Z,5.07
2023-01-19T20:07:25.625Z,4.93
2023-01-19T20:09:53.550Z,4.95
2023-01-19T20:12:20.194Z,4.88
2023-01-19T20:14:46.748Z,4.88
2023-01-19T20:17:13.319Z,4.87
2023-01-19T20:19:39.880Z,4.96
2023-01-19T20:22:07.124Z,4.89
2023-01-19T20:24:33.749Z,4.84
2023-01-19T20:27:00.301Z,4.80
2023-01-19T20:29:26.974Z,4.67
2023-01-19T20:31:55.539Z,4.60
2023-01-19T20:34:25.174Z,4.53
2023-01-19T20:36:53.886Z,4.61
2023-01-19T20:39:21.723Z,4.62
2023-01-19T20:41:50.897Z,4.61
2023-01-19T20:44:20.810Z,4.61
2023-01-19T20:46:48.396Z,4.70
2023-01-19T20:49:15.255Z,4.68
2023-01-19T20:51:45.121Z,4.53
2023-01-19T20:54:13.068Z,4.43
2023-01-19T20:56:41.290Z,4.42
2023-01-19T20:59:12.176Z,4.39
2023-01-19T21:01:39.931Z,4.44
2023-01-19T21:04:07.373Z,4.57
2023-01-19T21:06:35.159Z,4.70
2023-01-19T21:09:01.836Z,4.82
2023-01-19T21:11:28.614Z,4.82
2023-01-19T21:13:57.999Z,4.93
2023-01-19T21:16:30.486Z,4.93
2023-01-19T21:18:57.697Z,5.00
2023-01-19T21:21:30.706Z,5.04
2023-01-19T21:23:59.516Z,5.08
2023-01-19T21:26:26.218Z,5.16
2023-01-19T21:28:52.869Z,5.23
2023-01-19T21:31:22.630Z,5.33
2023-01-19T21:33:53.433Z,5.35
2023-01-19T21:36:21.534Z,5.37
2023-01-19T21:38:48.377Z,5.46
2023-01-19T21:41:16.371Z,5.51
2023-01-19T21:43:43.465Z,5.61
2023-01-19T21:46:16.640Z,5.71
2023-01-19T21:48:43.400Z,5.77
2023-01-19T21:51:10.295Z,5.78
2023-01-19T21:53:37.088Z,5.70
2023-01-19T21:56:06.776Z,5.74
2023-01-19T21:58:33.717Z,5.77
2023-01-19T22:01:05.334Z,5.78
2023-01-19T22:03:32.055Z,5.88
2023-01-19T22:06:06.860Z,5.94
2023-01-19T22:08:34.214Z,6.02
2023-01-19T22:11:08.368Z,6.11
2023-01-19T22:13:36.178Z,6.16
2023-01-19T22:16:04.143Z,6.22
2023-01-19T22:18:30.777Z,6.29
2023-01-19T22:21:10.375Z,6.34
2023-01-19T22:23:37.582Z,6.37
2023-01-19T22:26:05.141Z,6.41
2023-01-19T22:28:33.116Z,6.43
2023-01-19T22:31:08.056Z,6.50
2023-01-19T22:33:35.364Z,6.49
2023-01-19T22:36:21.482Z,6.46
2023-01-19T22:38:50.895Z,6.46
2023-01-19T22:41:27.894Z,6.44
2023-01-19T22:43:56.997Z,6.49
2023-01-19T22:46:26.518Z,6.49
2023-01-19T22:48:54.332Z,6.53
2023-01-19T22:51:22.503Z,6.50
2023-01-19T22:53:49.539Z,6.51
2023-01-19T22:56:24.603Z,6.49
2023-01-19T22:58:52.242Z,6.47
2023-01-19T23:01:27.821Z,6.47
2023-01-19T23:03:55.537Z,6.44
2023-01-19T23:06:27.869Z,6.50
2023-01-19T23:08:56.535Z,6.49
2023-01-19T23:11:52.985Z,6.50
2023-01-19T23:14:22.034Z,6.51
2023-01-19T23:16:48.685Z,6.50
2023-01-19T23:19:17.260Z,6.49
2023-01-19T23:21:44.867Z,6.53
2023-01-19T23:24:12.124Z,6.53
2023-01-19T23:26:38.806Z,6.53
2023-01-19T23:29:13.774Z,6.56
2023-01-19T23:31:45.737Z,6.56
2023-01-19T23:34:13.356Z,6.56
2023-01-19T23:36:41.776Z,6.58
2023-01-19T23:39:16.217Z,6.58
2023-01-19T23:41:42.804Z,6.61
2023-01-19T23:44:09.841Z,6.61
2023-01-19T23:46:36.477Z,6.66
2023-01-19T23:49:03.050Z,6.64
2023-01-19T23:51:31.406Z,6.67
2023-01-19T23:53:59.704Z,6.68
2023-01-19T23:56:37.325Z,6.70
2023-01-19T23:59:15.345Z,6.75
